Flight Track Log - Related Links

Times and Time Zones

All times are in EST time to prevent confusion due to time zone crossing. See the UPS5904 flight status page for this flight to view local times or setup timezone preferences in your user account.

Time Position Orientation Groundspeed Altitude Reporting Facility
EST Latitude Longitude Course Direction KTS MPH feet Rate Location/Type
Sat 05:12:08 PM 61.1764 -150.0015 350° North 90 104  Level FlightAware ADS-B
Sat 05:13:08 PM 61.2139 -150.0350 337° Northwest 178 205 2,000 1,725 Climbing FlightAware ADS-B
Sat 05:13:28 PM 61.2275 -150.0597 319° Northwest 210 242 2,300 1,538 Climbing FlightAware ADS-B
Sat 05:13:47 PM 61.2364 -150.0965 297° West 230 265 3,000 2,250 Climbing FlightAware ADS-B
Sat 05:14:08 PM 61.2378 -150.1402 274° West 248 285 3,800 2,488 Climbing FlightAware ADS-B
Sat 05:14:28 PM 61.2392 -150.1916 273° West 260 299 4,700 3,000 Climbing FlightAware ADS-B
Sat 05:14:48 PM 61.2405 -150.2416 273° West 264 304 5,800 3,150 Climbing FlightAware ADS-B
Sat 05:15:08 PM 61.2431 -150.2906 276° West 270 311 6,800 3,150 Climbing FlightAware ADS-B
Sat 05:15:28 PM 61.2450 -150.3448 274° West 267 307 7,900 3,300 Climbing FlightAware ADS-B
Sat 05:15:48 PM 61.2463 -150.3966 273° West 270 311 9,000 3,000 Climbing FlightAware ADS-B
Sat 05:16:06 PM 61.2479 -150.4449 274° West 274 315 9,800 2,700 Climbing FlightAware ADS-B
Sat 05:16:48 PM 61.2505 -150.5549 273° West 289 333 11,700 2,634 Climbing FlightAware ADS-B
Sat 05:17:28 PM 61.2532 -150.6757 273° West 327 376 13,400 2,593 Climbing FlightAware ADS-B
Sat 05:18:09 PM 61.2579 -150.8090 274° West 359 413 15,200 2,963 Climbing FlightAware ADS-B
Sat 05:18:49 PM 61.2621 -150.9480 274° West 371 427 17,400 3,375 Climbing FlightAware ADS-B
Sat 05:19:29 PM 61.2647 -151.0917 272° West 377 434 19,700 3,375 Climbing FlightAware ADS-B
Sat 05:20:09 PM 61.2680 -151.2358 273° West 381 438 21,900 3,038 Climbing FlightAware ADS-B
Sat 05:20:48 PM 61.2712 -151.3803 273° West 390 449 23,700 2,625 Climbing FlightAware ADS-B
Sat 05:21:29 PM 61.2745 -151.5369 273° West 397 457 25,400 2,400 Climbing FlightAware ADS-B
Sat 05:22:08 PM 61.2776 -151.6840 273° West 409 471 26,900 2,250 Climbing FlightAware ADS-B
Sat 05:22:49 PM 61.2807 -151.8475 272° West 418 481 28,400 2,222 Climbing FlightAware ADS-B
Sat 05:23:29 PM 61.2835 -152.0050 272° West 421 484 29,900 2,250 Climbing FlightAware ADS-B
Sat 05:24:09 PM 61.2846 -152.1704 271° West 423 487 31,400 1,575 Climbing FlightAware ADS-B
Sat 05:24:49 PM 61.2851 -152.3330 270° West 440 506 32,000 1,350 Climbing FlightAware ADS-B
Sat 05:25:29 PM 61.2855 -152.5061 270° West 444 511 33,200 1,595 Climbing FlightAware ADS-B
Sat 05:26:08 PM 61.2859 -152.6698 270° West 449 517 34,100 1,725 Climbing FlightAware ADS-B
Sat 05:26:49 PM 61.2861 -152.8443 270° West 441 507 35,500 1,407 Climbing FlightAware ADS-B
Sat 05:27:29 PM 61.2860 -153.0151 270° West 446 513 36,000 375 Climbing FlightAware ADS-B
Sat 05:28:09 PM 61.2857 -153.1903 270° West 450 518 36,000  Level FlightAware ADS-B
Sat 05:28:49 PM 61.2851 -153.3597 270° West 447 514 36,000  Level FlightAware ADS-B
Sat 05:29:29 PM 61.2844 -153.5312 270° West 446 513 36,000  Level FlightAware ADS-B
Sat 05:30:10 PM 61.2836 -153.7059 269° West 445 512 36,000  Level FlightAware ADS-B
Sat 05:30:50 PM 61.2824 -153.8703 269° West 443 510 36,000  Level FlightAware ADS-B
Sat 05:31:30 PM 61.2810 -154.0433 269° West 443 510 36,000  Level FlightAware ADS-B
Sat 05:32:09 PM 61.2795 -154.2124 269° West 444 511 36,000  Level FlightAware ADS-B
Sat 05:32:50 PM 61.2777 -154.3813 269° West 445 512 36,000  Level FlightAware ADS-B
Sat 05:33:30 PM 61.2757 -154.5549 269° West 445 512 36,000  Level FlightAware ADS-B
Sat 05:34:10 PM 61.2735 -154.7264 269° West 447 514 36,000  Level FlightAware ADS-B
Sat 05:34:49 PM 61.2710 -154.8905 268° West 447 514 36,000  Level FlightAware ADS-B
Sat 05:35:30 PM 61.2683 -155.0669 268° West 448 516 36,000  Level FlightAware ADS-B
Sat 05:36:09 PM 61.2654 -155.2372 268° West 448 516 36,000  Level FlightAware ADS-B
Sat 05:37:31 PM 61.2500 -155.5667 268° West 430 495 36,000  Level Anchorage Center
Sat 05:38:31 PM 61.2500 -155.8167 270° West 440 506 36,000  Level Anchorage Center
Sat 05:39:32 PM 61.2500 -156.0667 270° West 440 506 36,000  Level Anchorage Center
Sat 05:40:32 PM 61.2500 -156.3167 270° West 440 506 36,000  Level Anchorage Center
Sat 05:41:32 PM 61.2500 -156.5833 270° West 440 506 36,000  Level Anchorage Center
Sat 05:43:28 PM 61.2500 -157.0833 270° West 440 506 36,000  Level Anchorage Center
Sat 05:44:29 PM 61.2500 -157.3500 270° West 450 518 36,000  Level Anchorage Center
Sat 05:45:28 PM 61.2500 -157.6000 270° West 440 506 36,000  Level Anchorage Center
Sat 05:46:34 PM 61.2333 -157.8667 263° West 430 495 36,000  Level Anchorage Center
Sat 05:47:34 PM 61.2333 -158.1167 270° West 440 506 36,000  Level Anchorage Center
Sat 05:48:35 PM 61.2333 -158.3667 270° West 440 506 36,000  Level Anchorage Center
Sat 05:49:35 PM 61.2333 -158.6333 270° West 440 506 36,000  Level Anchorage Center
Sat 05:50:35 PM 61.2333 -158.8833 270° West 440 506 36,000  Level Anchorage Center
Sat 05:51:36 PM 61.2333 -159.1500 270° West 450 518 36,000  Level Anchorage Center
Sat 05:52:36 PM 61.2167 -159.4000 262° West 440 506 36,000  Level Anchorage Center
Sat 05:53:37 PM 61.2167 -159.6500 270° West 440 506 36,000  Level Anchorage Center
Sat 05:54:37 PM 61.2167 -159.9167 270° West 440 506 36,000  Level Anchorage Center
Sat 05:55:38 PM 61.2000 -160.1667 262° West 440 506 36,000  Level Anchorage Center
Sat 05:56:38 PM 61.2000 -160.4333 270° West 440 506 36,000  Level Anchorage Center
Sat 05:57:38 PM 61.2000 -160.7000 270° West 440 506 36,000  Level Anchorage Center
Sat 05:58:39 PM 61.1833 -160.9500 262° West 440 506 36,000  Level Anchorage Center
Sat 05:59:39 PM 61.1833 -161.2167 270° West 440 506 36,000  Level Anchorage Center
Sat 06:00:39 PM 61.1667 -161.4667 262° West 440 506 36,000  Level Anchorage Center
Sat 06:01:39 PM 61.1667 -161.7167 270° West 440 506 36,000  Level Anchorage Center
Sat 06:02:39 PM 61.1500 -161.9667 262° West 430 495 36,000  Level Anchorage Center
Sat 06:03:40 PM 61.1333 -162.2167 262° West 430 495 36,000  Level Anchorage Center
Sat 06:04:40 PM 61.1333 -162.4833 270° West 440 506 36,000  Level Anchorage Center
Sat 06:05:40 PM 61.1167 -162.7333 262° West 440 506 36,000  Level Anchorage Center
Sat 06:06:41 PM 61.1167 -162.9833 270° West 430 495 36,000  Level Anchorage Center
Sat 06:07:41 PM 61.0833 -163.2333 255° West 430 495 36,000  Level Anchorage Center
Sat 06:08:41 PM 61.0500 -163.4667 254° West 440 506 36,000  Level Anchorage Center
Sat 06:09:42 PM 61.0000 -163.7167 248° West 440 506 36,000  Level Anchorage Center
Sat 06:10:42 PM 60.9667 -163.9667 255° West 440 506 36,000  Level Anchorage Center
Sat 06:11:43 PM 60.9333 -164.2000 254° West 440 506 36,000  Level Anchorage Center
Sat 06:12:43 PM 60.9000 -164.4500 255° West 440 506 36,000  Level Anchorage Center
Sat 06:13:43 PM 60.8667 -164.6833 254° West 440 506 36,000  Level Anchorage Center
Sat 06:14:44 PM 60.8167 -164.9333 248° West 440 506 36,000  Level Anchorage Center
Sat 06:15:44 PM 60.7833 -165.1833 255° West 440 506 36,000  Level Anchorage Center
Sat 06:16:44 PM 60.7500 -165.4167 254° West 440 506 36,000  Level Anchorage Center
Sat 06:17:30 PM 60.7167 -165.6167 251° West 440 506 36,000  Level Anchorage Center
Sat 06:19:45 PM 60.6333 -166.1333 252° West 440 506 36,000  Level Anchorage Center
Sat 06:20:30 PM 60.6000 -166.3333 251° West 440 506 36,000  Level Anchorage Center
Sat 06:21:30 PM 60.5500 -166.5833 248° West 450 518 36,000  Level Anchorage Center
Sat 06:22:30 PM 60.5167 -166.8167 254° West 450 518 36,000  Level Anchorage Center
Sat 06:23:30 PM 60.4667 -167.0667 248° West 450 518 36,000  Level Anchorage Center
Sat 06:24:30 PM 60.4333 -167.3000 254° West 450 518 36,000  Level Anchorage Center
Sat 06:25:30 PM 60.3833 -167.5333 247° West 450 518 36,000  Level Anchorage Center
Sat 06:26:30 PM 60.3500 -167.7833 255° West 450 518 36,000  Level Anchorage Center
Sat 06:27:31 PM 60.3000 -168.0167 247° West 450 518 36,000  Level Anchorage Center
Sat 06:28:31 PM 60.2667 -168.2500 254° West 450 518 36,000  Level Anchorage Center
Sat 06:29:30 PM 60.2167 -168.4833 247° West 440 506 36,000  Level Anchorage Center
Sat 06:30:30 PM 60.1667 -168.7167 247° West 440 506 36,000  Level Anchorage Center
Sat 06:31:31 PM 60.1333 -168.9500 254° West 440 506 36,000  Level Anchorage Center
Sat 06:32:31 PM 60.0833 -169.1833 247° West 440 506 36,000  Level Anchorage Center
Sat 06:33:31 PM 60.0500 -169.4167 254° West 450 518 36,000  Level Anchorage Center
Sat 06:34:31 PM 60.0000 -169.6500 247° West 440 506 36,000  Level Anchorage Center
Sat 06:35:31 PM 59.9500 -169.8667 245° Southwest 440 506 36,000  Level Anchorage Center
Sat 06:36:31 PM 59.9000 -170.1000 247° West 440 506 36,000  Level Anchorage Center
Sat 06:37:31 PM 59.8667 -170.3167 253° West 440 506 36,000  Level Anchorage Center
Sat 06:38:31 PM 59.8167 -170.5333 245° Southwest 430 495 36,000  Level Anchorage Center
Sat 06:39:32 PM 59.7667 -170.7667 247° West 440 506 36,000  Level Anchorage Center
Sat 06:40:31 PM 59.7167 -171.0000 247° West 450 518 36,000  Level Anchorage Center
Sat 06:41:31 PM 59.6833 -171.2167 253° West 440 506 36,000  Level Anchorage Center
Sat 06:42:31 PM 59.6167 -171.4667 242° Southwest 450 518 36,000  Level Anchorage Center
Sat 06:43:31 PM 59.5833 -171.6667 252° West 420 483 36,000  Level Anchorage Center
Sat 06:44:32 PM 59.5333 -171.9000 247° West 440 506 36,000  Level Anchorage Center
Sat 06:45:32 PM 59.4833 -172.1333 247° West 460 529 36,000  Level Anchorage Center
Sat 06:46:32 PM 59.4333 -172.3500 246° West 440 506 36,000  Level Anchorage Center
Sat 06:47:32 PM 59.4000 -172.5833 254° West 440 506 36,000  Level Anchorage Center
Sat 06:48:32 PM 59.3500 -172.8000 246° West 440 506 36,000  Level Anchorage Center
Sat 06:49:32 PM 59.3000 -173.0333 247° West 440 506 36,000  Level Anchorage Center
Sat 06:50:32 PM 59.2500 -173.2500 246° West 440 506 36,000  Level Anchorage Center
Sat 06:51:33 PM 59.2000 -173.4833 247° West 440 506 36,000  Level Anchorage Center
Sat 06:52:32 PM 59.1500 -173.7000 246° West 440 506 36,000  Level Anchorage Center
Sat 06:53:32 PM 59.1000 -173.9167 246° West 430 495 36,000  Level Anchorage Center
Sat 06:54:32 PM 59.0667 -174.1333 253° West 440 506 36,000  Level Anchorage Center
Sat 06:55:32 PM 59.0000 -174.3500 239° Southwest 440 506 36,000  Level Anchorage Center
Sat 06:56:32 PM 58.9667 -174.5667 253° West 440 506 36,000  Level Anchorage Center
Sat 06:59:06 PM 58.8500 -175.1500 246° West 442 509 36,000  Level Anchorage Center
Sat 06:59:52 PM 58.8000 -175.3167 245° Southwest 450 518 36,000  Level Anchorage Center
Sat 07:00:53 PM 58.7500 -175.5333 246° West 450 518 36,000  Level Anchorage Center
Sat 07:01:53 PM 58.7000 -175.7500 246° West 440 506 36,000  Level Anchorage Center
Sat 07:04:43 PM 58.5500 -176.3500 245° Southwest 440 506 36,000  Level Anchorage Center
Sat 07:05:00 PM 58.5557 -176.4126 245° Southwest 442 509 36,000  Level FlightAware Transoceanic
Sat 07:05:43 PM 58.5000 -176.5667 246° West 440 506 36,000  Level Anchorage Center
Sat 07:06:43 PM 58.4500 -176.7833 246° West 440 506 36,000  Level Anchorage Center
Sat 07:07:43 PM 58.4000 -176.9833 245° Southwest 430 495 36,000  Level Anchorage Center
Sat 07:08:43 PM 58.3500 -177.1500 240° Southwest 440 506 36,000  Level Anchorage Center
Sat 07:18:19 PM 57.8333 -179.2167 243° Southwest 437 503 36,000  Level Anchorage Center
Sat 07:27:57 PM 57.3000 178.8833 241° Southwest 433 498 36,000  Level Anchorage Center
Sat 07:35:47 PM 56.8333 177.3500 240° Southwest 443 510 36,000  Level Anchorage Center
Sat 07:37:30 PM 56.7167 177.0000 240° Southwest 437 503 36,000  Level Anchorage Center
Sat 07:47:15 PM 56.1333 175.2167 238° Southwest 431 496 36,000  Level Anchorage Center
Sat 07:51:02 PM 55.8667 174.5000 237° Southwest 440 506 36,000  Level Anchorage Center
Sat 07:52:00 PM 55.7866 174.2553 237° Southwest 437 503 36,000  Level FlightAware Transoceanic
Sat 07:52:01 PM 55.8167 174.3500 239° Southwest 430 495 36,000  Level Anchorage Center
Sat 07:53:00 PM 55.7429 174.1169 237° Southwest 431 496 36,000  Level FlightAware Transoceanic
Sat 07:53:01 PM 55.7500 174.1500 239° Southwest 430 495 36,000  Level Anchorage Center
Sat 07:54:00 PM 55.6768 173.9358 237° Southwest 431 496 36,000  Level FlightAware Transoceanic
Sat 07:54:02 PM 55.6667 173.9667 231° Southwest 430 495 36,000  Level Anchorage Center
Sat 07:55:00 PM 55.6105 173.7552 237° Southwest 431 496 36,000  Level FlightAware Transoceanic
Sat 07:55:02 PM 55.6167 173.8000 242° Southwest 440 506 36,000  Level Anchorage Center
Sat 07:56:00 PM 55.5440 173.5753 237° Southwest 431 496 36,000  Level FlightAware Transoceanic
Sat 07:56:02 PM 55.5500 173.6000 240° Southwest 440 506 36,000  Level Anchorage Center
Sat 07:57:02 PM 55.4833 173.4333 235° Southwest 450 518 36,000  Level Anchorage Center
Sat 07:58:02 PM 55.4000 173.2333 234° Southwest 450 518 36,000  Level Anchorage Center
Sat 07:59:02 PM 55.3500 173.0833 240° Southwest 450 518 36,000  Level Anchorage Center
Sat 08:00:02 PM 55.2667 172.8833 234° Southwest 450 518 36,000  Level Anchorage Center
Sat 08:01:02 PM 55.2167 172.7167 242° Southwest 440 506 36,000  Level Anchorage Center
Sat 08:02:02 PM 55.1333 172.5167 234° Southwest 450 518 36,000  Level Anchorage Center
Sat 08:03:02 PM 55.0667 172.3333 238° Southwest 440 506 36,000  Level Anchorage Center
Sat 08:04:02 PM 55.0000 172.1667 235° Southwest 460 529 36,000  Level Anchorage Center
Sat 08:05:02 PM 54.9167 171.9667 234° Southwest 450 518 36,000  Level Anchorage Center
Sat 08:06:03 PM 54.8500 171.8167 232° Southwest 450 518 36,000  Level Anchorage Center
Sat 08:07:02 PM 54.7833 171.6333 238° Southwest 440 506 36,000  Level Anchorage Center
Sat 08:08:02 PM 54.7167 171.4833 232° Southwest 430 495 36,000  Level Anchorage Center
Sat 08:09:02 PM 54.6333 171.3000 232° Southwest 440 506 36,000  Level Anchorage Center
Sat 08:10:02 PM 54.5667 171.1167 238° Southwest 430 495 36,000  Level Anchorage Center
Sat 08:11:03 PM 54.5000 170.9667 233° Southwest 430 495 36,000  Level Anchorage Center
Sat 08:12:03 PM 54.4333 170.7833 238° Southwest 430 495 36,000  Level Anchorage Center
Sat 08:13:03 PM 54.3667 170.6500 229° Southwest 440 506 36,000  Level Anchorage Center
Sat 08:14:03 PM 54.2833 170.4667 232° Southwest 430 495 36,000  Level Anchorage Center
Sat 08:15:03 PM 54.2167 170.3167 233° Southwest 460 529 36,000  Level Anchorage Center
Sat 08:16:03 PM 54.1500 170.1333 238° Southwest 430 495 36,000  Level Anchorage Center
Sat 08:17:03 PM 54.0667 169.9500 232° Southwest 450 518 36,000  Level Anchorage Center
Sat 08:18:03 PM 54.0000 169.8000 233° Southwest 450 518 36,000  Level Anchorage Center
Sat 08:19:03 PM 53.9167 169.6167 232° Southwest 450 518 36,000  Level Anchorage Center
Sat 08:20:03 PM 53.8500 169.4667 233° Southwest 420 483 36,000  Level Anchorage Center
Sat 08:21:03 PM 53.7667 169.2833 232° Southwest 450 518 36,000  Level Anchorage Center
Sat 08:22:03 PM 53.7000 169.1333 233° Southwest 450 518 36,000  Level Anchorage Center
Sat 08:23:04 PM 53.6333 168.9333 241° Southwest 460 529 36,000  Level Anchorage Center
Sat 08:24:04 PM 53.5833 168.7833 241° Southwest 450 518 36,000  Level Anchorage Center
Sat 08:25:52 PM 53.5000 168.5000 240° Southwest 442 509 36,000  Level Anchorage Center
Sat 08:27:08 PM 53.4167 168.2333 240° Southwest 449 517 36,000  Level Anchorage Center
Sat 08:35:12 PM 52.8833 166.8000 239° Southwest 444 511 36,000  Level Anchorage Center
Sat 08:44:51 PM 52.2667 165.1500 237° Southwest 446 513 36,000  Level Anchorage Center
Sat 08:53:46 PM 51.6500 163.6500 236° Southwest 445 512 36,000  Level Anchorage Center
Sat 08:54:00 PM 51.6733 163.6800 236° Southwest 446 513 36,000  Level FlightAware Transoceanic
Sat 08:54:21 PM 51.6000 163.5167 236° Southwest 444 511 36,000  Level Anchorage Center
Sat 09:04:03 PM 50.9333 161.9500 235° Southwest 445 512 36,000  Level Anchorage Center
Sat 09:13:38 PM 50.2333 160.4333 234° Southwest 431 496 36,000  Level Anchorage Center
Sat 09:13:59 PM 50.2000 160.3833 234° Southwest 440 506 36,000  Level Anchorage Center
Sat 09:14:00 PM 50.2247 160.4045 234° Southwest 445 512 36,000  Level FlightAware Transoceanic
Sat 09:15:00 PM 50.1527 160.2525 233° Southwest 445 512 36,000  Level FlightAware Transoceanic
Sat 09:16:00 PM 50.0805 160.1009 233° Southwest 445 512 36,000  Level FlightAware Transoceanic
Sat 09:17:00 PM 50.0081 159.9498 233° Southwest 445 512 36,000  Level FlightAware Transoceanic
Sat 09:18:00 PM 49.9355 159.7992 233° Southwest 445 512 36,000  Level FlightAware Transoceanic
Sat 09:19:00 PM 49.8468 159.6187 233° Southwest 431 496 36,000  Level FlightAware Transoceanic
Sat 09:20:00 PM 49.7863 159.4964 234° Southwest 440 506 36,000  Level FlightAware Transoceanic
Sat 09:21:00 PM 49.7167 159.3500 233° Southwest 440 506 36,000  Level FlightAware Transoceanic
Sat 09:22:00 PM 49.6460 159.2057 233° Southwest 440 506 36,000  Level FlightAware Transoceanic
Sat 09:23:00 PM 49.5751 159.0618 233° Southwest 440 506 36,000  Level FlightAware Transoceanic
Sat 09:24:00 PM 49.5041 158.9184 233° Southwest 440 506 36,000  Level FlightAware Transoceanic
Sat 09:25:00 PM 49.4329 158.7753 232° Southwest 440 506 36,000  Level FlightAware Transoceanic
Sat 09:26:00 PM 49.3615 158.6327 232° Southwest 440 506 36,000  Level FlightAware Transoceanic
Sat 09:27:00 PM 49.2900 158.4904 232° Southwest 440 506 36,000  Level FlightAware Transoceanic
Sat 09:28:00 PM 49.2182 158.3486 232° Southwest 440 506 36,000  Level FlightAware Transoceanic
Sat 09:29:00 PM 49.1463 158.2072 232° Southwest 440 506 36,000  Level FlightAware Transoceanic
Sat 09:30:00 PM 49.0743 158.0663 232° Southwest 440 506 36,000  Level FlightAware Transoceanic
Sat 09:31:00 PM 49.0020 157.9257 232° Southwest 440 506 36,000  Level FlightAware Transoceanic
Sat 09:32:00 PM 48.9296 157.7855 232° Southwest 440 506 36,000  Level FlightAware Transoceanic
Sat 09:33:00 PM 48.8570 157.6458 232° Southwest 440 506 36,000  Level FlightAware Transoceanic
Sat 09:34:00 PM 48.7842 157.5064 232° Southwest 440 506 36,000  Level FlightAware Transoceanic
Sat 09:35:00 PM 48.7113 157.3674 231° Southwest 440 506 36,000  Level FlightAware Transoceanic
Sat 09:36:00 PM 48.6382 157.2289 231° Southwest 440 506 36,000  Level FlightAware Transoceanic
Sat 09:37:00 PM 48.5650 157.0907 231° Southwest 440 506 36,000  Level FlightAware Transoceanic
Sat 09:38:00 PM 48.4916 156.9530 231° Southwest 440 506 36,000  Level FlightAware Transoceanic
Sat 09:39:00 PM 48.4180 156.8156 231° Southwest 440 506 36,000  Level FlightAware Transoceanic
Sat 09:40:00 PM 48.3442 156.6787 231° Southwest 440 506 36,000  Level FlightAware Transoceanic
Sat 09:41:00 PM 48.2703 156.5421 231° Southwest 440 506 36,000  Level FlightAware Transoceanic
Sat 09:42:00 PM 48.1963 156.4060 231° Southwest 440 506 36,000  Level FlightAware Transoceanic
Sat 09:43:00 PM 48.1220 156.2702 231° Southwest 440 506 36,000  Level FlightAware Transoceanic
Sat 09:44:00 PM 48.0476 156.1348 231° Southwest 440 506 36,000  Level FlightAware Transoceanic
Sat 09:45:00 PM 47.9731 155.9998 230° Southwest 440 506 36,000  Level FlightAware Transoceanic
Sat 09:46:00 PM 47.8984 155.8652 230° Southwest 440 506 36,000  Level FlightAware Transoceanic
Sat 09:47:00 PM 47.8235 155.7310 230° Southwest 440 506 36,000  Level FlightAware Transoceanic
Sat 09:48:00 PM 47.7485 155.5972 230° Southwest 440 506 36,000  Level FlightAware Transoceanic
Sat 09:49:00 PM 47.6733 155.4638 230° Southwest 440 506 36,000  Level FlightAware Transoceanic
Sat 09:50:00 PM 47.5980 155.3307 230° Southwest 440 506 36,000  Level FlightAware Transoceanic
Sat 09:51:00 PM 47.5225 155.1981 230° Southwest 440 506 36,000  Level FlightAware Transoceanic
Sat 09:52:00 PM 47.4469 155.0658 230° Southwest 440 506 36,000  Level FlightAware Transoceanic
Sat 09:53:00 PM 47.3711 154.9339 230° Southwest 440 506 36,000  Level FlightAware Transoceanic
Sat 09:54:00 PM 47.2952 154.8023 230° Southwest 440 506 36,000  Level FlightAware Transoceanic
Sat 09:55:00 PM 47.2191 154.6712 229° Southwest 440 506 36,000  Level FlightAware Transoceanic
Sat 09:56:00 PM 47.1428 154.5404 229° Southwest 440 506 36,000  Level FlightAware Transoceanic
Sat 09:57:00 PM 47.0665 154.4100 229° Southwest 440 506 36,000  Level FlightAware Transoceanic
Sat 09:58:00 PM 46.9899 154.2800 229° Southwest 440 506 36,000  Level FlightAware Transoceanic
Sat 09:59:00 PM 46.9132 154.1503 229° Southwest 440 506 36,000  Level FlightAware Transoceanic
Sat 10:00:00 PM 46.8364 154.0211 229° Southwest 440 506 36,000  Level FlightAware Transoceanic
Sat 10:01:00 PM 46.7594 153.8922 229° Southwest 440 506 36,000  Level FlightAware Transoceanic
Sat 10:02:00 PM 46.6823 153.7636 229° Southwest 440 506 36,000  Level FlightAware Transoceanic
Sat 10:03:00 PM 46.6051 153.6354 229° Southwest 440 506 36,000  Level FlightAware Transoceanic
Sat 10:04:00 PM 46.5277 153.5076 229° Southwest 440 506 36,000  Level FlightAware Transoceanic
Sat 10:05:00 PM 46.4501 153.3802 228° Southwest 440 506 36,000  Level FlightAware Transoceanic
Sat 10:06:00 PM 46.3725 153.2531 228° Southwest 440 506 36,000  Level FlightAware Transoceanic
Sat 10:07:00 PM 46.2946 153.1264 228° Southwest 440 506 36,000  Level FlightAware Transoceanic
Sat 10:08:00 PM 46.2223 153.0092 228° Southwest  Level FlightAware Approximate
Sat 10:09:00 PM 46.1499 152.8923 228° Southwest  Level FlightAware Approximate
Sat 10:10:00 PM 46.1552 152.9019 228° Southwest  Level FlightAware Approximate
Sat 10:11:00 PM 46.0823 152.7859 228° Southwest  Level FlightAware Approximate
Sat 10:12:00 PM 46.0092 152.6702 228° Southwest  Level FlightAware Approximate
Sat 10:13:00 PM 45.9360 152.5548 228° Southwest  Level FlightAware Approximate
Sat 10:14:00 PM 45.8627 152.4397 228° Southwest  Level FlightAware Approximate
Sat 10:15:00 PM 45.7892 152.3249 227° Southwest  Level FlightAware Approximate
Sat 10:16:00 PM 45.7157 152.2104 227° Southwest  Level FlightAware Approximate
Sat 10:17:00 PM 45.6420 152.0962 227° Southwest  Level FlightAware Approximate
Sat 10:18:00 PM 45.5682 151.9823 227° Southwest  Level FlightAware Approximate
Sat 10:19:00 PM 45.4944 151.8687 227° Southwest  Level FlightAware Approximate
Sat 10:20:00 PM 45.4204 151.7554 227° Southwest  Level FlightAware Approximate
Sat 10:21:00 PM 45.3462 151.6424 227° Southwest  Level FlightAware Approximate
Sat 10:22:00 PM 45.2720 151.5297 227° Southwest  Level FlightAware Approximate
Sat 10:23:00 PM 45.1977 151.4173 227° Southwest  Level FlightAware Approximate
Sat 10:24:00 PM 45.1233 151.3052 227° Southwest  Level FlightAware Approximate
Sat 10:25:00 PM 45.0487 151.1934 227° Southwest  Level FlightAware Approximate
Sat 10:26:00 PM 44.9740 151.0819 227° Southwest  Level FlightAware Approximate
Sat 10:27:00 PM 44.8993 150.9706 227° Southwest  Level FlightAware Approximate
Sat 10:28:00 PM 44.8244 150.8597 226° Southwest  Level FlightAware Approximate
Sat 10:29:00 PM 44.7494 150.7490 226° Southwest  Level FlightAware Approximate
Sat 10:30:00 PM 44.6743 150.6386 226° Southwest  Level FlightAware Approximate
Sat 10:31:00 PM 44.5991 150.5285 226° Southwest  Level FlightAware Approximate
Sat 10:32:00 PM 44.5238 150.4187 226° Southwest  Level FlightAware Approximate
Sat 10:33:00 PM 44.4484 150.3092 226° Southwest  Level FlightAware Approximate
Sat 10:34:00 PM 44.3729 150.2000 226° Southwest  Level FlightAware Approximate
Sat 10:35:00 PM 44.2973 150.0910 226° Southwest  Level FlightAware Approximate
Sat 10:36:00 PM 44.2216 149.9823 226° Southwest  Level FlightAware Approximate
Sat 10:37:00 PM 44.1458 149.8739 226° Southwest  Level FlightAware Approximate
Sat 10:38:00 PM 44.0698 149.7658 226° Southwest  Level FlightAware Approximate
Sat 10:39:00 PM 43.9938 149.6580 226° Southwest  Level FlightAware Approximate
Sat 10:40:00 PM 43.9177 149.5504 226° Southwest  Level FlightAware Approximate
Sat 10:41:00 PM 43.8415 149.4431 225° Southwest  Level FlightAware Approximate
Sat 10:42:00 PM 43.7651 149.3361 225° Southwest  Level FlightAware Approximate
Sat 10:43:00 PM 43.6887 149.2293 225° Southwest  Level FlightAware Approximate
Sat 10:44:00 PM 43.6122 149.1229 225° Southwest  Level FlightAware Approximate
Sat 10:45:00 PM 43.5356 149.0167 225° Southwest  Level FlightAware Approximate
Sat 10:46:00 PM 43.4588 148.9107 225° Southwest  Level FlightAware Approximate
Sat 10:47:00 PM 43.3820 148.8051 225° Southwest  Level FlightAware Approximate
Sat 10:48:00 PM 43.3051 148.6997 225° Southwest  Level FlightAware Approximate
Sat 10:49:00 PM 43.2281 148.5945 225° Southwest  Level FlightAware Approximate
Sat 10:50:00 PM 43.1510 148.4897 225° Southwest  Level FlightAware Approximate
Sat 10:51:00 PM 43.0738 148.3851 225° Southwest  Level FlightAware Approximate
Sat 10:52:00 PM 42.9965 148.2807 225° Southwest  Level FlightAware Approximate
Sat 10:53:00 PM 42.9191 148.1767 225° Southwest  Level FlightAware Approximate
Sat 10:54:00 PM 42.8416 148.0729 225° Southwest  Level FlightAware Approximate
Sat 10:55:00 PM 42.7640 147.9693 224° Southwest  Level FlightAware Approximate
Sat 10:56:00 PM 42.6864 147.8660 224° Southwest  Level FlightAware Approximate
Sat 10:57:00 PM 42.6086 147.7630 224° Southwest  Level FlightAware Approximate
Sat 10:58:00 PM 42.5307 147.6602 224° Southwest  Level FlightAware Approximate
Sat 10:59:00 PM 42.4528 147.5577 224° Southwest  Level FlightAware Approximate
Sat 11:00:00 PM 42.3748 147.4553 225° Southwest  Level FlightAware Approximate
Sat 11:01:00 PM 42.2975 147.3522 225° Southwest  Level FlightAware Approximate
Sat 11:02:00 PM 42.2200 147.2493 225° Southwest  Level FlightAware Approximate
Sat 11:03:00 PM 42.1425 147.1467 224° Southwest  Level FlightAware Approximate
Sat 11:04:00 PM 42.0649 147.0444 224° Southwest  Level FlightAware Approximate
Sat 11:05:00 PM 41.9872 146.9423 224° Southwest  Level FlightAware Approximate
Sat 11:06:00 PM 41.9093 146.8405 224° Southwest  Level FlightAware Approximate
Sat 11:07:00 PM 41.8308 146.7397 224° Southwest  Level FlightAware Approximate
Sat 11:08:00 PM 41.7522 146.6392 224° Southwest  Level FlightAware Approximate
Sat 11:09:00 PM 41.6735 146.5390 224° Southwest  Level FlightAware Approximate
Sat 11:10:00 PM 41.5948 146.4389 224° Southwest  Level FlightAware Approximate
Sat 11:11:00 PM 41.5159 146.3392 223° Southwest  Level FlightAware Approximate
Sat 11:12:00 PM 41.4370 146.2396 223° Southwest  Level FlightAware Approximate
Sat 11:13:00 PM 41.3580 146.1403 223° Southwest  Level FlightAware Approximate
Sat 11:14:00 PM 41.2789 146.0413 223° Southwest  Level FlightAware Approximate
Sat 11:15:00 PM 41.1997 145.9424 223° Southwest  Level FlightAware Approximate
Sat 11:16:00 PM 41.1205 145.8439 223° Southwest  Level FlightAware Approximate
Sat 11:17:00 PM 41.0411 145.7455 223° Southwest  Level FlightAware Approximate
Sat 11:18:00 PM 40.9617 145.6474 223° Southwest  Level FlightAware Approximate
Sat 11:19:00 PM 40.8821 145.5496 223° Southwest  Level FlightAware Approximate
Sat 11:20:00 PM 40.8026 145.4519 223° Southwest  Level FlightAware Approximate
Sat 11:21:00 PM 40.7229 145.3545 223° Southwest  Level FlightAware Approximate
Sat 11:22:00 PM 40.6431 145.2574 223° Southwest  Level FlightAware Approximate
Sat 11:23:00 PM 40.5633 145.1604 223° Southwest  Level FlightAware Approximate
Sat 11:24:00 PM 40.4833 145.0637 223° Southwest  Level FlightAware Approximate
Sat 11:25:00 PM 40.4071 144.9632 238° Southwest  Level FlightAware Approximate
Sat 11:26:00 PM 40.3493 144.8425 238° Southwest  Level FlightAware Approximate
Sat 11:27:00 PM 40.2915 144.7219 238° Southwest  Level FlightAware Approximate
Sat 11:28:00 PM 40.2335 144.6016 238° Southwest  Level FlightAware Approximate
Sat 11:29:00 PM 40.1754 144.4815 238° Southwest  Level FlightAware Approximate
Sat 11:30:00 PM 40.1172 144.3616 238° Southwest  Level FlightAware Approximate
Sat 11:31:00 PM 40.0589 144.2419 238° Southwest  Level FlightAware Approximate
Sat 11:32:00 PM 40.0004 144.1224 237° Southwest  Level FlightAware Approximate
Sat 11:33:00 PM 39.9418 144.0031 237° Southwest  Level FlightAware Approximate
Sat 11:34:00 PM 39.8831 143.8840 237° Southwest  Level FlightAware Approximate
Sat 11:35:00 PM 39.8245 143.7649 238° Southwest  Level FlightAware Approximate
Sat 11:36:00 PM 39.7671 143.6449 238° Southwest  Level FlightAware Approximate
Sat 11:37:00 PM 39.7096 143.5251 238° Southwest  Level FlightAware Approximate
Sat 11:38:00 PM 39.6520 143.4055 238° Southwest  Level FlightAware Approximate
Sat 11:39:00 PM 39.5942 143.2861 238° Southwest  Level FlightAware Approximate
Sat 11:40:00 PM 39.5363 143.1670 238° Southwest  Level FlightAware Approximate
Sat 11:41:00 PM 39.4783 143.0480 238° Southwest  Level FlightAware Approximate
Sat 11:42:00 PM 39.4202 142.9292 238° Southwest  Level FlightAware Approximate
Sat 11:43:00 PM 39.3620 142.8106 238° Southwest  Level FlightAware Approximate
Sat 11:44:00 PM 39.3036 142.6922 238° Southwest  Level FlightAware Approximate
Sat 11:45:00 PM 39.2451 142.5740 237° Southwest  Level FlightAware Approximate
Sat 11:46:00 PM 39.1805 142.4619 230° Southwest  Level FlightAware Approximate
Sat 11:47:00 PM 39.1099 142.3554 230° Southwest  Level FlightAware Approximate
Sat 11:48:00 PM 39.0393 142.2491 229° Southwest  Level FlightAware Approximate
Sat 11:49:00 PM 38.9686 142.1431 229° Southwest  Level FlightAware Approximate
Sat 11:50:00 PM 38.8978 142.0373 229° Southwest  Level FlightAware Approximate
Sat 11:51:00 PM 38.8269 141.9317 229° Southwest  Level FlightAware Approximate
Sat 11:52:00 PM 38.7559 141.8262 229° Southwest  Level FlightAware Approximate
Sat 11:53:00 PM 38.6848 141.7211 229° Southwest  Level FlightAware Approximate
Sat 11:54:00 PM 38.6136 141.6161 229° Southwest  Level FlightAware Approximate
Sat 11:55:00 PM 38.5423 141.5113 229° Southwest  Level FlightAware Approximate
Sat 11:56:00 PM 38.4709 141.4067 229° Southwest  Level FlightAware Approximate
Sat 11:57:00 PM 38.3995 141.3023 229° Southwest  Level FlightAware Approximate
Sat 11:58:00 PM 38.3279 141.1982 229° Southwest  Level FlightAware Approximate
Sat 11:59:00 PM 38.2562 141.0942 229° Southwest  Level FlightAware Approximate
Sun 12:00:00 AM 38.1845 140.9905 229° Southwest  Level FlightAware Approximate
Sun 12:01:00 AM 38.1036 140.9045 198° South  Level FlightAware Approximate
Sun 12:02:00 AM 38.0003 140.8623 198° South  Level FlightAware Approximate
Sun 12:03:00 AM 37.8969 140.8202 198° South  Level FlightAware Approximate
Sun 12:04:00 AM 37.7935 140.7782 198° South  Level FlightAware Approximate
Sun 12:05:00 AM 37.6900 140.7363 198° South  Level FlightAware Approximate
Sun 12:06:00 AM 37.5869 140.6935 202° Southwest  Level FlightAware Approximate
Sun 12:07:00 AM 37.4857 140.6440 198° South  Level FlightAware Approximate
Sun 12:08:00 AM 37.3826 140.6011 198° South  Level FlightAware Approximate
Sun 12:09:00 AM 37.2795 140.5582 198° South  Level FlightAware Approximate
Sun 12:10:00 AM 37.1764 140.5155 198° South  Level FlightAware Approximate
Sun 12:11:00 AM 37.0732 140.4729 198° South  Level FlightAware Approximate
Sun 12:12:00 AM 36.9701 140.4304 198° South  Level FlightAware Approximate
Sun 12:13:00 AM 36.8669 140.3880 198° South  Level FlightAware Approximate
Sun 12:14:00 AM 36.7637 140.3458 198° South  Level FlightAware Approximate
Sun 12:15:00 AM 36.6974 140.2490 242° Southwest  Level FlightAware Approximate
Sun 12:16:00 AM 36.6463 140.1295 242° Southwest  Level FlightAware Approximate
Sun 12:17:00 AM 36.5950 140.0102 242° Southwest  Level FlightAware Approximate
Sun 12:17:14 AM 36.3030 138.9140 242° Southwest 375 432 36,000  Level FlightAware ADS-B
Sun 12:17:51 AM 36.2580 138.8580 225° Southwest 373 429 36,000  Level FlightAware ADS-B
Sun 12:18:29 AM 36.2120 138.7990 226° Southwest 371 427 36,000  Level FlightAware ADS-B
Sun 12:21:00 AM 36.0685 138.5110 238° Southwest  Level Estimated
Sun 12:22:00 AM 36.0112 138.3969 238° Southwest  Level Estimated
Sun 12:23:00 AM 35.9539 138.2829 238° Southwest  Level Estimated
Sun 12:24:00 AM 35.8965 138.1691 238° Southwest  Level Estimated
Sun 12:25:00 AM 35.8389 138.0555 238° Southwest  Level Estimated
Sun 12:26:00 AM 35.7813 137.9420 238° Southwest  Level Estimated
Sun 12:27:00 AM 35.7235 137.8288 238° Southwest  Level Estimated
Sun 12:28:00 AM 35.6656 137.7156 238° Southwest  Level Estimated
Sun 12:29:00 AM 35.6077 137.6026 238° Southwest  Level Estimated
Sun 12:30:00 AM 35.5496 137.4898 238° Southwest  Level Estimated
Sun 12:31:00 AM 35.4914 137.3772 238° Southwest  Level Estimated
Sun 12:32:00 AM 35.4331 137.2647 238° Southwest  Level Estimated
Sun 12:33:00 AM 35.3747 137.1524 238° Southwest  Level Estimated
Sun 12:34:00 AM 35.3162 137.0402 237° Southwest  Level Estimated
Sun 12:35:00 AM 35.2576 136.9282 237° Southwest  Level Estimated
Sun 12:36:00 AM 35.1990 136.8164 237° Southwest  Level Estimated
Sun 12:37:00 AM 35.1401 136.7047 237° Southwest  Level Estimated
Sun 12:38:00 AM 35.0812 136.5932 237° Southwest  Level Estimated
Sun 12:39:00 AM 35.0222 136.4818 237° Southwest  Level Estimated
Sun 12:40:00 AM 34.9631 136.3706 237° Southwest  Level Estimated
Sun 12:41:00 AM 34.9039 136.2596 237° Southwest  Level Estimated
Sun 12:42:00 AM 34.8446 136.1487 237° Southwest  Level Estimated
Sun 12:43:00 AM 34.7852 136.0380 237° Southwest  Level Estimated
Sun 12:44:00 AM 34.7257 135.9275 237° Southwest  Level Estimated
Sun 12:45:00 AM 34.6661 135.8171 237° Southwest  Level Estimated
Sun 12:46:00 AM 34.6064 135.7069 237° Southwest  Level Estimated
Sun 12:47:00 AM 34.5466 135.5968 237° Southwest  Level Estimated
Sun 12:48:00 AM 34.4866 135.4869 237° Southwest  Level Estimated
Sun 12:49:00 AM 34.4266 135.3771 236° Southwest  Level Estimated
Sun 12:50:00 AM 34.3665 135.2675 236° Southwest  Level Estimated
Sun 12:51:00 AM 34.3063 135.1581 236° Southwest  Level Estimated
Sun 12:52:00 AM 34.2460 135.0488 236° Southwest  Level Estimated
Sun 12:53:00 AM 34.1856 134.9397 236° Southwest  Level Estimated
Sun 12:54:00 AM 34.1251 134.8307 236° Southwest  Level Estimated
Sun 12:55:00 AM 34.0645 134.7219 236° Southwest  Level Estimated
Sun 12:56:00 AM 34.0039 134.6132 236° Southwest  Level Estimated
Sun 12:57:00 AM 33.9431 134.5047 236° Southwest  Level Estimated
Sun 12:58:00 AM 33.8822 134.3963 236° Southwest  Level Estimated
Sun 12:59:00 AM 33.8213 134.2881 236° Southwest  Level Estimated
Sun 01:00:00 AM 33.7602 134.1801 236° Southwest  Level Estimated
Sun 01:01:00 AM 33.6990 134.0722 236° Southwest  Level Estimated
Sun 01:02:00 AM 33.6378 133.9645 236° Southwest  Level Estimated
Sun 01:03:00 AM 33.5764 133.8569 236° Southwest  Level Estimated
Sun 01:04:00 AM 33.5150 133.7495 236° Southwest  Level Estimated
Sun 01:05:00 AM 33.4535 133.6422 236° Southwest  Level Estimated
Sun 01:06:00 AM 33.3918 133.5351 235° Southwest  Level Estimated
Sun 01:07:00 AM 33.3301 133.4281 235° Southwest  Level Estimated
Sun 01:08:00 AM 33.2683 133.3213 235° Southwest  Level Estimated
Sun 01:09:00 AM 33.2064 133.2146 235° Southwest  Level Estimated
Sun 01:10:00 AM 33.1444 133.1081 235° Southwest  Level Estimated
Sun 01:11:00 AM 33.0824 133.0017 235° Southwest  Level Estimated
Sun 01:12:00 AM 33.0202 132.8955 235° Southwest  Level Estimated
Sun 01:13:00 AM 32.9579 132.7894 235° Southwest  Level Estimated
Sun 01:14:00 AM 32.8956 132.6835 235° Southwest  Level Estimated
Sun 01:15:00 AM 32.8331 132.5777 235° Southwest  Level Estimated
Sun 01:16:00 AM 32.7706 132.4721 235° Southwest  Level Estimated
Sun 01:17:00 AM 32.7080 132.3666 235° Southwest  Level Estimated
Sun 01:18:00 AM 32.6453 132.2613 235° Southwest  Level Estimated
Sun 01:19:00 AM 32.5825 132.1561 235° Southwest  Level Estimated
Sun 01:20:00 AM 32.5196 132.0511 235° Southwest  Level Estimated
Sun 01:21:00 AM 32.4567 131.9462 235° Southwest  Level Estimated
Sun 01:22:00 AM 32.3936 131.8415 235° Southwest  Level Estimated
Sun 01:23:00 AM 32.3305 131.7369 234° Southwest  Level Estimated
Sun 01:24:00 AM 32.2673 131.6325 234° Southwest  Level Estimated
Sun 01:25:00 AM 32.2039 131.5282 234° Southwest  Level Estimated
Sun 01:26:00 AM 32.1405 131.4240 234° Southwest  Level Estimated
Sun 01:27:00 AM 32.0771 131.3200 234° Southwest  Level Estimated
Sun 01:28:00 AM 32.0135 131.2161 234° Southwest  Level Estimated
Sun 01:29:00 AM 31.9499 131.1124 234° Southwest  Level Estimated
Sun 01:30:00 AM 31.8861 131.0088 234° Southwest  Level Estimated
Sun 01:31:00 AM 31.8223 130.9054 234° Southwest  Level Estimated
Sun 01:32:00 AM 31.7584 130.8021 234° Southwest  Level Estimated
Sun 01:33:00 AM 31.6944 130.6990 234° Southwest  Level Estimated
Sun 01:34:00 AM 31.6304 130.5960 234° Southwest  Level Estimated
Sun 01:35:00 AM 31.5662 130.4931 234° Southwest  Level Estimated
Sun 01:36:00 AM 31.5020 130.3904 234° Southwest  Level Estimated
Sun 01:37:00 AM 31.4377 130.2878 234° Southwest  Level Estimated
Sun 01:38:00 AM 31.3733 130.1854 234° Southwest  Level Estimated
Sun 01:39:00 AM 31.3088 130.0831 234° Southwest  Level Estimated
Sun 01:40:00 AM 31.2442 129.9809 234° Southwest  Level Estimated
Sun 01:41:00 AM 31.1796 129.8789 233° Southwest  Level Estimated
Sun 01:42:00 AM 31.1149 129.7770 233° Southwest  Level Estimated
Sun 01:43:00 AM 31.0501 129.6753 233° Southwest  Level Estimated
Sun 01:44:00 AM 30.9852 129.5737 233° Southwest  Level Estimated
Sun 01:45:00 AM 30.9202 129.4722 233° Southwest  Level Estimated
Sun 01:46:00 AM 30.8552 129.3709 233° Southwest  Level Estimated
Sun 01:47:00 AM 30.7901 129.2697 233° Southwest  Level Estimated
Sun 01:48:00 AM 30.7249 129.1686 233° Southwest  Level Estimated
Sun 01:49:00 AM 30.6596 129.0677 233° Southwest  Level Estimated
Sun 01:50:00 AM 30.5942 128.9669 233° Southwest  Level Estimated
Sun 01:51:00 AM 30.5288 128.8663 233° Southwest  Level Estimated
Sun 01:52:00 AM 30.4633 128.7658 233° Southwest  Level Estimated
Sun 01:53:00 AM 30.3977 128.6654 233° Southwest  Level Estimated
Sun 01:54:00 AM 30.3321 128.5652 233° Southwest  Level Estimated
Sun 01:55:00 AM 30.2663 128.4651 233° Southwest  Level Estimated
Sun 01:56:00 AM 30.2005 128.3651 233° Southwest  Level Estimated
Sun 01:57:00 AM 30.1346 128.2653 233° Southwest  Level Estimated
Sun 01:58:00 AM 30.0687 128.1656 233° Southwest  Level Estimated
Sun 01:59:00 AM 30.0026 128.0660 233° Southwest  Level Estimated
Sun 02:00:00 AM 29.9365 127.9666 233° Southwest  Level Estimated
Sun 02:01:00 AM 29.8703 127.8672 232° Southwest  Level Estimated
Sun 02:02:00 AM 29.8041 127.7681 232° Southwest  Level Estimated
Sun 02:03:00 AM 29.7377 127.6690 232° Southwest  Level Estimated
Sun 02:04:00 AM 29.6713 127.5701 232° Southwest  Level Estimated
Sun 02:05:00 AM 29.6048 127.4713 232° Southwest  Level Estimated
Sun 02:06:00 AM 29.5383 127.3727 232° Southwest  Level Estimated
Sun 02:07:00 AM 29.4716 127.2742 232° Southwest  Level Estimated
Sun 02:08:00 AM 29.4049 127.1758 232° Southwest  Level Estimated
Sun 02:09:00 AM 29.3382 127.0775 232° Southwest  Level Estimated
Sun 02:10:00 AM 29.2713 126.9794 232° Southwest  Level Estimated
Sun 02:11:00 AM 29.2044 126.8814 232° Southwest  Level Estimated
Sun 02:12:00 AM 29.1374 126.7835 232° Southwest  Level Estimated
Sun 02:13:00 AM 29.0704 126.6858 232° Southwest  Level Estimated
Sun 02:14:00 AM 29.0032 126.5881 232° Southwest  Level Estimated
Sun 02:15:00 AM 28.9360 126.4906 232° Southwest  Level Estimated
Sun 02:16:00 AM 28.8688 126.3933 232° Southwest  Level Estimated
Sun 02:17:00 AM 28.8014 126.2960 232° Southwest  Level Estimated
Sun 02:18:00 AM 28.7340 126.1989 232° Southwest  Level Estimated
Sun 02:19:00 AM 28.6665 126.1019 232° Southwest  Level Estimated
Sun 02:20:00 AM 28.5990 126.0051 232° Southwest  Level Estimated
Sun 02:21:00 AM 28.5314 125.9083 232° Southwest  Level Estimated
Sun 02:22:00 AM 28.4637 125.8117 231° Southwest  Level Estimated
Sun 02:23:00 AM 28.3959 125.7152 231° Southwest  Level Estimated
Sun 02:24:00 AM 28.3281 125.6188 231° Southwest  Level Estimated
Sun 02:25:00 AM 28.2602 125.5226 231° Southwest  Level Estimated
Sun 02:26:00 AM 28.1923 125.4265 231° Southwest  Level Estimated
Sun 02:27:00 AM 28.1242 125.3305 231° Southwest  Level Estimated
Sun 02:28:00 AM 28.0562 125.2346 231° Southwest  Level Estimated
Sun 02:29:00 AM 27.9880 125.1388 231° Southwest  Level Estimated
Sun 02:30:00 AM 27.9198 125.0432 231° Southwest  Level Estimated
Sun 02:31:00 AM 27.8515 124.9476 231° Southwest  Level Estimated
Sun 02:32:00 AM 27.7831 124.8522 231° Southwest  Level Estimated
Sun 02:33:00 AM 27.7147 124.7570 231° Southwest  Level Estimated
Sun 02:34:00 AM 27.6462 124.6618 231° Southwest  Level Estimated
Sun 02:35:00 AM 27.5777 124.5668 231° Southwest  Level Estimated
Sun 02:36:00 AM 27.5091 124.4718 231° Southwest  Level Estimated
Sun 02:37:00 AM 27.4404 124.3771 231° Southwest  Level Estimated
Sun 02:38:00 AM 27.3717 124.2824 231° Southwest  Level Estimated
Sun 02:39:00 AM 27.3028 124.1878 231° Southwest  Level Estimated
Sun 02:40:00 AM 27.2340 124.0934 231° Southwest  Level Estimated
Sun 02:41:00 AM 27.1650 123.9990 231° Southwest  Level Estimated
Sun 02:42:00 AM 27.0960 123.9048 231° Southwest  Level Estimated
Sun 02:43:00 AM 27.0270 123.8107 231° Southwest  Level Estimated
Sun 02:44:00 AM 26.9579 123.7167 230° Southwest  Level Estimated
Sun 02:45:00 AM 26.8887 123.6228 230° Southwest  Level Estimated
Sun 02:46:00 AM 26.8194 123.5291 230° Southwest  Level Estimated
Sun 02:47:00 AM 26.7501 123.4355 230° Southwest  Level Estimated
Sun 02:48:00 AM 26.6807 123.3419 230° Southwest  Level Estimated
Sun 02:49:00 AM 26.6113 123.2485 230° Southwest  Level Estimated
Sun 02:50:00 AM 26.5418 123.1552 230° Southwest  Level Estimated
Sun 02:51:00 AM 26.4723 123.0620 230° Southwest  Level Estimated
Sun 02:52:00 AM 26.4027 122.9690 230° Southwest  Level Estimated
Sun 02:53:00 AM 26.3330 122.8760 230° Southwest  Level Estimated
Sun 02:54:00 AM 26.2633 122.7831 230° Southwest  Level Estimated
Sun 02:55:00 AM 26.1935 122.6904 230° Southwest  Level Estimated
Sun 02:56:00 AM 26.1236 122.5978 230° Southwest  Level Estimated
Sun 02:57:00 AM 26.0537 122.5053 230° Southwest  Level Estimated
Sun 02:58:00 AM 25.9837 122.4129 230° Southwest  Level Estimated
Sun 02:59:00 AM 25.9137 122.3206 230° Southwest  Level Estimated
Sun 03:00:00 AM 25.8436 122.2284 230° Southwest  Level Estimated
Sun 03:01:00 AM 25.7735 122.1363 230° Southwest  Level Estimated
Sun 03:02:00 AM 25.7033 122.0443 230° Southwest  Level Estimated
Sun 03:03:00 AM 25.6330 121.9525 230° Southwest  Level Estimated
Sun 03:04:00 AM 25.5627 121.8607 230° Southwest  Level Estimated
Sun 03:05:00 AM 25.4923 121.7691 230° Southwest  Level Estimated
Sun 03:06:00 AM 25.4219 121.6775 230° Southwest  Level Estimated
Sun 03:07:00 AM 25.3514 121.5861 230° Southwest  Level Estimated
Sun 03:08:00 AM 25.2809 121.4948 230° Southwest  Level Estimated
Sun 03:09:00 AM 25.2103 121.4036 229° Southwest  Level Estimated
Sun 03:10:00 AM 25.1396 121.3125 229° Southwest  Level Estimated
Sun 03:11:00 AM 25.0777 121.2328 229° Southwest  Level Estimated
Sun 03:12:00 AM 25.0777 121.2328 61° Northeast  Level Estimated
Sun 03:13:00 AM 25.0777 121.2328 61° Northeast  Level Estimated
Sun 03:14:00 AM 25.0777 121.2328 61° Northeast  Level Estimated
Sun 03:15:00 AM 25.0777 121.2328 61° Northeast  Level Estimated
Sun 03:16:00 AM 25.0777 121.2328 61° Northeast  Level Estimated
Sun 03:17:00 AM 25.0777 121.2328 61° Northeast  Level Estimated
Sun 03:18:00 AM 25.0777 121.2328 61° Northeast  Level Estimated
Sun 03:19:00 AM 25.0777 121.2328 61° Northeast  Level Estimated
Sun 03:20:00 AM 25.0777 121.2328 61° Northeast  Level Estimated
Sun 03:21:00 AM 25.0777 121.2328 61° Northeast  Level Estimated
Sun 03:22:00 AM 25.0777 121.2328 61° Northeast  Level Estimated
Sun 03:23:00 AM 25.0777 121.2328 61° Northeast  Level Estimated
Sun 03:24:00 AM 25.0777 121.2328 61° Northeast  Level Estimated
Sun 03:25:00 AM 25.0777 121.2328 61° Northeast  Level Estimated
Sun 03:26:00 AM 25.0777 121.2328 61° Northeast  Level Estimated
Sun 03:27:00 AM 25.0777 121.2328 61° Northeast  Level Estimated
Sun 03:28:00 AM 25.0777 121.2328 61° Northeast  Level Estimated
Sun 03:29:00 AM 25.0777 121.2328 61° Northeast  Level Estimated
Sun 03:30:00 AM 25.0777 121.2328 61° Northeast  Level Estimated
Sun 03:31:00 AM 25.0777 121.2328 61° Northeast  Level Estimated
Sun 03:32:00 AM 25.0777 121.2328 61° Northeast  Level Estimated
Sun 03:33:00 AM 25.0777 121.2328 61° Northeast  Level Estimated
Sun 03:34:00 AM 25.0777 121.2328 61° Northeast  Level Estimated
Sun 03:35:00 AM 25.0777 121.2328 61° Northeast  Level Estimated
Sun 03:36:00 AM 25.0777 121.2328 61° Northeast  Level Estimated
Sun 03:37:00 AM 25.0777 121.2328 61° Northeast  Level Estimated
Sun 03:38:00 AM 25.0777 121.2328 61° Northeast  Level Estimated
Sun 03:39:00 AM 25.0777 121.2328 61° Northeast  Level Estimated
Sun 03:40:00 AM 25.0777 121.2328 61° Northeast  Level Estimated
Sun 03:41:00 AM 25.0777 121.2328 61° Northeast  Level Estimated
Sun 03:42:00 AM 25.0777 121.2328 61° Northeast  Level Estimated
Sun 03:43:00 AM 25.0777 121.2328 61° Northeast  Level Estimated
Sun 03:44:00 AM 25.0777 121.2328 61° Northeast  Level Estimated
Sun 03:45:00 AM 25.0777 121.2328 61° Northeast  Level Estimated
Sun 03:46:00 AM 25.0777 121.2328 61° Northeast  Level Estimated
Sun 03:47:00 AM 25.0777 121.2328 61° Northeast  Level Estimated
Sun 03:48:00 AM 25.0777 121.2328 61° Northeast  Level Estimated
Sun 03:49:00 AM 25.0777 121.2328 61° Northeast  Level Estimated
Sun 03:50:00 AM 25.0777 121.2328 61° Northeast  Level Estimated
Sun 03:51:00 AM 25.0777 121.2328 61° Northeast  Level Estimated
Sun 03:52:00 AM 25.0777 121.2328 61° Northeast  Level Estimated
Sun 03:53:00 AM 25.0777 121.2328 61° Northeast  Level Estimated
Sun 03:54:00 AM 25.0777 121.2328 61° Northeast  Level Estimated
Sun 03:55:00 AM 25.0777 121.2328 61° Northeast  Level Estimated
Sun 03:56:00 AM 25.0777 121.2328 61° Northeast  Level Estimated
Sun 03:57:00 AM 25.0777 121.2328 61° Northeast  Level Estimated
Sun 03:58:00 AM 25.0777 121.2328 61° Northeast  Level Estimated
Sun 03:59:00 AM 25.0777 121.2328 61° Northeast  Level Estimated
Sun 04:00:00 AM 25.0777 121.2328 61° Northeast  Level Estimated
Sun 04:01:00 AM 25.0777 121.2328 61° Northeast  Level Estimated
Sun 04:02:00 AM 25.0777 121.2328 61° Northeast  Level Estimated
Sun 04:03:00 AM 25.0777 121.2328 61° Northeast  Level Estimated
Sun 04:04:00 AM 25.0777 121.2328 61° Northeast  Level Estimated
Sun 04:05:00 AM 25.0777 121.2328 61° Northeast  Level Estimated
Sun 04:06:00 AM 25.0777 121.2328 61° Northeast  Level Estimated
Sun 04:07:00 AM 25.0777 121.2328 61° Northeast  Level Estimated
Sun 04:08:00 AM 25.0777 121.2328 61° Northeast  Level Estimated

Login

Don't have an account? Register now (free) for customized features, flight alerts, and more!